createdAt,value
2023-04-01T00:02:24.242Z,8.33
2023-04-01T00:04:51.064Z,8.35
2023-04-01T00:07:17.691Z,9.73
2023-04-01T00:09:44.270Z,8.25
2023-04-01T00:12:10.852Z,7.00
2023-04-01T00:14:38.038Z,8.60
2023-04-01T00:17:04.724Z,6.63
2023-04-01T00:19:32.834Z,9.30
2023-04-01T00:21:59.528Z,8.57
2023-04-01T00:24:26.196Z,9.27
2023-04-01T00:26:52.741Z,8.00
2023-04-01T00:29:19.232Z,9.93
2023-04-01T00:31:45.814Z,9.70
2023-04-01T00:34:13.165Z,8.43
2023-04-01T00:36:39.807Z,8.50
2023-04-01T00:39:06.284Z,7.87
2023-04-01T00:41:32.828Z,7.78
2023-04-01T00:44:23.042Z,10.65
2023-04-01T00:46:50.034Z,9.43
2023-04-01T00:49:19.896Z,9.43
2023-04-01T00:51:49.310Z,7.43
2023-04-01T00:54:18.506Z,7.47
2023-04-01T00:56:52.291Z,8.38
2023-04-01T00:59:25.741Z,7.72
2023-04-01T01:01:52.430Z,6.68
2023-04-01T01:04:27.907Z,9.00
2023-04-01T01:06:58.545Z,7.50
2023-04-01T01:09:34.339Z,9.85
2023-04-01T01:12:19.464Z,5.88
2023-04-01T01:14:56.162Z,6.15
2023-04-01T01:17:49.565Z,7.33
2023-04-01T01:21:01.402Z,8.45
2023-04-01T01:24:09.161Z,6.82
2023-04-01T01:26:56.926Z,7.03
2023-04-01T01:29:43.581Z,6.80
2023-04-01T01:32:38.554Z,10.50
2023-04-01T01:35:20.306Z,9.68
2023-04-01T01:37:50.971Z,9.63
2023-04-01T01:40:17.851Z,9.15
2023-04-01T01:42:48.580Z,9.93
2023-04-01T01:45:19.757Z,9.33
2023-04-01T01:47:48.606Z,8.95
2023-04-01T01:50:17.153Z,9.85
2023-04-01T01:52:43.652Z,10.63
2023-04-01T01:55:29.359Z,11.82
2023-04-01T01:58:00.620Z,10.73
2023-04-01T02:00:28.778Z,12.38
2023-04-01T02:02:56.557Z,11.52
2023-04-01T02:05:26.499Z,13.55
2023-04-01T02:08:01.727Z,13.25
2023-04-01T02:10:32.239Z,12.80
2023-04-01T02:13:05.163Z,11.98
2023-04-01T02:15:35.927Z,12.50
2023-04-01T02:18:03.940Z,14.07
2023-04-01T02:20:31.009Z,12.90
2023-04-01T02:23:00.597Z,13.77
2023-04-01T02:25:35.774Z,13.68
2023-04-01T02:28:04.830Z,13.38
2023-04-01T02:30:34.579Z,15.18
2023-04-01T02:33:02.210Z,18.25
2023-04-01T02:35:31.291Z,18.07
2023-04-01T02:37:57.960Z,20.08
2023-04-01T02:40:24.486Z,16.60
2023-04-01T02:42:51.706Z,18.15
2023-04-01T02:45:18.715Z,16.40
2023-04-01T02:47:45.302Z,19.00
2023-04-01T02:50:11.979Z,18.33
2023-04-01T02:52:38.767Z,19.48
2023-04-01T02:55:07.797Z,17.73
2023-04-01T02:57:34.695Z,20.20
2023-04-01T03:00:01.369Z,18.00
2023-04-01T03:02:28.076Z,15.82
2023-04-01T03:04:54.718Z,16.15
2023-04-01T03:07:21.310Z,15.57
2023-04-01T03:09:49.375Z,18.45
2023-04-01T03:12:15.903Z,17.17
2023-04-01T03:14:49.962Z,16.13
2023-04-01T03:17:16.517Z,16.23
2023-04-01T03:19:43.031Z,16.08
2023-04-01T03:22:12.085Z,18.95
2023-04-01T03:24:38.566Z,19.23
2023-04-01T03:27:05.095Z,19.65
2023-04-01T03:29:31.689Z,16.52
2023-04-01T03:31:59.775Z,20.08
2023-04-01T03:34:26.920Z,17.50
2023-04-01T03:36:53.794Z,20.30
2023-04-01T03:39:20.467Z,20.73
2023-04-01T03:41:47.577Z,19.10
2023-04-01T03:44:14.350Z,22.13
2023-04-01T03:46:41.532Z,25.10
2023-04-01T03:49:12.397Z,21.47
2023-04-01T03:51:40.301Z,22.15
2023-04-01T03:54:07.080Z,23.30
2023-04-01T03:56:33.725Z,20.00
2023-04-01T03:59:03.857Z,24.25
2023-04-01T04:01:30.639Z,20.83
2023-04-01T04:03:57.664Z,21.30
2023-04-01T04:06:25.306Z,24.25
2023-04-01T04:08:52.655Z,22.35
2023-04-01T04:11:20.201Z,18.98
2023-04-01T04:13:48.903Z,17.87
2023-04-01T04:16:17.495Z,19.20
2023-04-01T04:18:48.293Z,17.52
2023-04-01T04:21:16.351Z,19.00
2023-04-01T04:23:44.036Z,19.98
2023-04-01T04:26:14.033Z,18.77
2023-04-01T04:28:40.674Z,14.50
2023-04-01T04:31:08.694Z,17.30
2023-04-01T04:33:36.535Z,20.83
2023-04-01T04:36:05.434Z,22.73
2023-04-01T04:38:32.378Z,15.60
2023-04-01T04:40:59.656Z,16.77
2023-04-01T04:43:26.281Z,12.55
2023-04-01T04:45:52.836Z,14.57
2023-04-01T04:48:21.081Z,13.90
2023-04-01T04:50:50.079Z,15.67
2023-04-01T04:53:20.219Z,17.48
2023-04-01T04:55:49.133Z,13.20
2023-04-01T04:58:39.044Z,15.32
2023-04-01T05:01:12.433Z,22.50
2023-04-01T05:03:40.000Z,14.40
2023-04-01T05:06:08.880Z,11.88
2023-04-01T05:08:36.247Z,12.10
2023-04-01T05:11:03.938Z,14.23
2023-04-01T05:13:32.928Z,13.07
2023-04-01T05:15:59.433Z,14.07
2023-04-01T05:18:25.966Z,13.05
2023-04-01T05:20:54.402Z,14.95
2023-04-01T05:23:22.626Z,14.32
2023-04-01T05:25:50.709Z,11.35
2023-04-01T05:28:17.517Z,12.53
2023-04-01T05:30:46.852Z,15.38
2023-04-01T05:33:24.722Z,11.00
2023-04-01T05:35:51.288Z,11.68
2023-04-01T05:38:17.844Z,10.68
2023-04-01T05:40:44.433Z,13.20
2023-04-01T05:43:11.377Z,11.75
2023-04-01T05:45:38.589Z,10.25
2023-04-01T05:48:31.126Z,11.80
2023-04-01T05:50:58.406Z,12.68
2023-04-01T05:53:25.316Z,12.47
2023-04-01T05:55:51.885Z,12.98
2023-04-01T05:58:18.760Z,12.40
2023-04-01T06:00:47.946Z,11.35
2023-04-01T06:03:17.041Z,12.02
2023-04-01T06:05:45.106Z,13.80
2023-04-01T06:08:20.083Z,16.70
2023-04-01T06:11:21.685Z,16.58
2023-04-01T06:14:18.138Z,13.80
2023-04-01T06:17:09.800Z,12.57
2023-04-01T06:19:42.748Z,16.00
2023-04-01T06:22:21.297Z,14.63
2023-04-01T06:24:59.205Z,14.98
2023-04-01T06:27:46.978Z,15.98
2023-04-01T06:30:38.348Z,14.60
2023-04-01T06:33:45.938Z,17.50
2023-04-01T06:36:37.415Z,13.25
2023-04-01T06:39:33.291Z,17.55
2023-04-01T06:42:15.820Z,11.30
2023-04-01T06:44:45.670Z,18.00
2023-04-01T06:47:37.926Z,19.27
2023-04-01T06:50:31.824Z,15.82
2023-04-01T06:53:52.862Z,17.17
2023-04-01T06:56:42.913Z,19.05
2023-04-01T06:59:20.736Z,16.08
2023-04-01T07:02:08.766Z,22.13
2023-04-01T07:04:40.193Z,16.70
2023-04-01T07:07:15.641Z,17.45
2023-04-01T07:09:56.255Z,19.48
2023-04-01T07:12:32.000Z,18.88
2023-04-01T07:16:00.663Z,17.67
2023-04-01T07:18:43.934Z,17.70
2023-04-01T07:21:33.562Z,16.02
2023-04-01T07:24:22.984Z,19.42
2023-04-01T07:27:01.400Z,16.15
2023-04-01T07:29:35.719Z,19.90
2023-04-01T07:32:13.171Z,23.60
2023-04-01T07:35:04.208Z,23.38
2023-04-01T07:37:55.625Z,25.83
2023-04-01T07:40:26.183Z,24.88
2023-04-01T07:43:34.745Z,20.73
2023-04-01T07:47:08.370Z,20.02
2023-04-01T07:49:55.866Z,20.92
2023-04-01T07:52:36.783Z,20.35
2023-04-01T07:55:40.945Z,19.73
2023-04-01T07:58:32.211Z,18.70
2023-04-01T08:01:25.168Z,20.75
2023-04-01T08:03:52.146Z,19.63
2023-04-01T08:06:31.233Z,20.10
2023-04-01T08:09:18.973Z,15.55
2023-04-01T08:12:42.382Z,16.17
2023-04-01T08:15:58.191Z,18.40
2023-04-01T08:19:05.692Z,18.13
2023-04-01T08:21:51.731Z,15.90
2023-04-01T08:24:34.436Z,21.13
2023-04-01T08:27:29.392Z,15.93
2023-04-01T08:30:24.290Z,14.38
2023-04-01T08:33:09.288Z,14.82
2023-04-01T08:35:52.792Z,14.57
2023-04-01T08:38:45.630Z,15.50
2023-04-01T08:41:31.161Z,13.93
2023-04-01T08:44:31.126Z,15.52
2023-04-01T08:47:22.682Z,15.75
2023-04-01T08:50:23.455Z,14.13
2023-04-01T08:53:42.187Z,15.32
2023-04-01T08:56:48.967Z,15.63
2023-04-01T08:59:18.288Z,13.00
2023-04-01T09:02:05.590Z,12.30
2023-04-01T09:05:07.750Z,13.52
2023-04-01T09:07:41.274Z,13.55
2023-04-01T09:10:35.808Z,13.83
2023-04-01T09:13:41.365Z,13.82
2023-04-01T09:16:24.338Z,15.05
2023-04-01T09:19:32.484Z,14.00
2023-04-01T09:22:25.781Z,12.63
2023-04-01T09:25:26.525Z,10.30
2023-04-01T09:28:17.396Z,13.98
2023-04-01T09:31:02.221Z,13.43
2023-04-01T09:33:48.065Z,9.45
2023-04-01T09:36:45.323Z,9.20
2023-04-01T09:39:24.083Z,9.57
2023-04-01T09:42:28.345Z,9.18
2023-04-01T09:45:36.317Z,8.45
2023-04-01T09:48:07.043Z,8.07
2023-04-01T09:50:37.783Z,10.00
2023-04-01T09:53:18.667Z,8.70
2023-04-01T09:56:06.396Z,7.22
2023-04-01T09:58:58.115Z,8.30
2023-04-01T10:02:05.260Z,6.90
2023-04-01T10:05:04.043Z,6.97
2023-04-01T10:07:52.428Z,6.83
2023-04-01T10:10:53.514Z,6.82
2023-04-01T10:13:56.719Z,6.00
2023-04-01T10:16:38.930Z,7.45
2023-04-01T10:19:33.511Z,7.25
2023-04-01T10:22:25.808Z,7.43
2023-04-01T10:25:06.400Z,7.22
2023-04-01T10:28:03.645Z,7.53
2023-04-01T10:31:20.565Z,6.35
2023-04-01T10:33:47.417Z,6.68
2023-04-01T10:36:46.429Z,7.17
2023-04-01T10:39:31.829Z,8.10
2023-04-01T10:42:35.127Z,7.43
2023-04-01T10:45:32.808Z,7.35
2023-04-01T10:48:21.521Z,7.75
2023-04-01T10:51:10.333Z,6.20
2023-04-01T10:53:55.709Z,6.25
2023-04-01T10:56:55.725Z,5.93
2023-04-01T11:00:16.923Z,6.25
2023-04-01T11:03:40.429Z,7.47
2023-04-01T11:07:06.385Z,6.03
2023-04-01T11:09:39.188Z,5.03
2023-04-01T11:12:44.817Z,4.82
2023-04-01T11:15:38.517Z,5.75
2023-04-01T11:18:33.836Z,7.55
2023-04-01T11:21:33.470Z,5.27
2023-04-01T11:24:21.884Z,6.10
2023-04-01T11:27:21.243Z,6.47
2023-04-01T11:30:00.524Z,4.72
2023-04-01T11:32:50.946Z,5.60
2023-04-01T11:35:31.950Z,5.03
2023-04-01T11:38:23.414Z,6.30
2023-04-01T11:41:03.775Z,5.25
2023-04-01T11:44:14.343Z,6.68
2023-04-01T11:46:52.242Z,5.50
2023-04-01T11:50:00.233Z,4.40
2023-04-01T11:52:48.412Z,3.67
2023-04-01T11:55:29.323Z,2.83
2023-04-01T11:58:16.795Z,3.78
2023-04-01T12:01:12.206Z,3.60
2023-04-01T12:03:57.853Z,4.87
2023-04-01T12:06:32.036Z,5.03
2023-04-01T12:09:11.412Z,4.88
2023-04-01T12:11:57.318Z,6.63
2023-04-01T12:14:37.406Z,5.32
2023-04-01T12:17:25.943Z,7.33
2023-04-01T12:20:11.165Z,5.97
2023-04-01T12:23:05.604Z,5.82
2023-04-01T12:25:56.769Z,5.18
2023-04-01T12:29:05.564Z,4.85
2023-04-01T12:32:11.048Z,4.93
2023-04-01T12:34:49.536Z,6.20
2023-04-01T12:37:46.196Z,4.90
2023-04-01T12:40:34.095Z,5.78
2023-04-01T12:43:15.881Z,4.70
2023-04-01T12:45:56.433Z,4.43
2023-04-01T12:48:38.304Z,4.80
2023-04-01T12:51:23.489Z,4.95
2023-04-01T12:54:05.978Z,4.53
2023-04-01T12:56:50.835Z,2.47
2023-04-01T12:59:56.222Z,3.33
2023-04-01T13:02:31.461Z,3.65
2023-04-01T13:05:21.035Z,3.25
2023-04-01T13:08:18.292Z,3.92
2023-04-01T13:10:57.922Z,5.28
2023-04-01T13:13:30.504Z,4.50
2023-04-01T13:16:06.343Z,3.85
2023-04-01T13:19:04.789Z,4.97
2023-04-01T13:21:50.043Z,4.70
2023-04-01T13:24:38.559Z,5.25
2023-04-01T13:27:18.050Z,4.83
2023-04-01T13:29:55.845Z,6.03
2023-04-01T13:32:42.499Z,8.95
2023-04-01T13:35:25.306Z,6.78
2023-04-01T13:38:30.923Z,5.97
2023-04-01T13:41:12.427Z,5.73
2023-04-01T13:43:44.677Z,5.93
2023-04-01T13:46:36.609Z,5.60
2023-04-01T13:49:22.140Z,6.78
2023-04-01T13:52:18.101Z,6.18
2023-04-01T13:55:21.734Z,7.27
2023-04-01T13:58:14.902Z,8.15
2023-04-01T14:00:57.281Z,7.30
2023-04-01T14:03:41.725Z,6.70
2023-04-01T14:06:19.150Z,7.18
2023-04-01T14:09:05.762Z,6.17
2023-04-01T14:11:46.489Z,6.25
2023-04-01T14:14:31.303Z,7.93
2023-04-01T14:17:39.616Z,5.95
2023-04-01T14:20:26.699Z,6.38
2023-04-01T14:23:17.390Z,6.53
2023-04-01T14:25:56.541Z,6.60
2023-04-01T14:28:41.203Z,6.40
2023-04-01T14:31:29.813Z,6.03
2023-04-01T14:34:17.838Z,5.75
2023-04-01T14:37:22.816Z,6.33
2023-04-01T14:39:58.546Z,7.05
2023-04-01T14:42:28.091Z,5.60
2023-04-01T14:45:25.971Z,5.85
2023-04-01T14:48:00.903Z,5.57
2023-04-01T14:50:42.057Z,8.33
2023-04-01T14:53:08.751Z,6.13
2023-04-01T14:55:48.988Z,7.63
2023-04-01T14:58:18.603Z,6.50
2023-04-01T15:01:13.978Z,6.65
2023-04-01T15:03:54.750Z,5.70
2023-04-01T15:06:50.425Z,6.13
2023-04-01T15:09:37.850Z,6.25
2023-04-01T15:12:23.815Z,6.50
2023-04-01T15:15:24.935Z,6.47
2023-04-01T15:18:00.625Z,6.50
2023-04-01T15:20:51.784Z,5.30
2023-04-01T15:23:32.328Z,6.47
2023-04-01T15:26:25.493Z,6.53
2023-04-01T15:29:31.683Z,6.78
2023-04-01T15:32:33.840Z,5.83
2023-04-01T15:35:16.101Z,5.75
2023-04-01T15:38:00.428Z,6.80
2023-04-01T15:40:38.171Z,6.47
2023-04-01T15:43:23.057Z,5.75
2023-04-01T15:45:59.229Z,5.80
2023-04-01T15:48:41.902Z,6.45
2023-04-01T15:51:32.731Z,6.95
2023-04-01T15:54:25.426Z,6.80
2023-04-01T15:57:27.745Z,6.38
2023-04-01T15:59:58.511Z,5.80
2023-04-01T16:02:52.570Z,6.10
2023-04-01T16:05:26.656Z,7.70
2023-04-01T16:08:02.336Z,6.80
2023-04-01T16:11:06.152Z,8.02
2023-04-01T16:13:53.624Z,6.43
2023-04-01T16:16:36.217Z,6.50
2023-04-01T16:19:02.722Z,6.47
2023-04-01T16:21:52.911Z,6.85
2023-04-01T16:24:31.139Z,6.75
2023-04-01T16:27:01.458Z,12.37
2023-04-01T16:29:36.631Z,5.70
2023-04-01T16:32:18.577Z,5.30
2023-04-01T16:35:15.752Z,8.02
2023-04-01T16:38:10.491Z,6.68
2023-04-01T16:40:59.915Z,5.63
2023-04-01T16:43:31.577Z,5.70
2023-04-01T16:46:15.965Z,5.78
2023-04-01T16:49:04.222Z,7.90
2023-04-01T16:51:44.019Z,5.63
2023-04-01T16:54:17.858Z,6.13
2023-04-01T16:56:56.074Z,5.53
2023-04-01T16:59:39.117Z,6.25
2023-04-01T17:02:13.858Z,5.97
2023-04-01T17:04:56.843Z,6.72
2023-04-01T17:07:49.014Z,5.10
2023-04-01T17:10:34.003Z,6.25
2023-04-01T17:13:28.973Z,5.25
2023-04-01T17:16:07.799Z,5.25
2023-04-01T17:19:06.077Z,5.25
2023-04-01T17:21:52.851Z,5.53
2023-04-01T17:24:57.719Z,4.82
2023-04-01T17:27:49.515Z,6.88
2023-04-01T17:30:39.855Z,6.28
2023-04-01T17:33:25.391Z,6.85
2023-04-01T17:36:02.580Z,8.60
2023-04-01T17:38:51.121Z,5.95
2023-04-01T17:41:58.273Z,5.57
2023-04-01T17:44:50.317Z,5.15
2023-04-01T17:47:30.858Z,6.10
2023-04-01T17:50:15.436Z,4.80
2023-04-01T17:53:02.290Z,5.47
2023-04-01T17:55:50.352Z,4.78
2023-04-01T17:58:22.982Z,5.40
2023-04-01T18:01:09.447Z,5.78
2023-04-01T18:04:14.798Z,4.70
2023-04-01T18:06:57.033Z,5.90
2023-04-01T18:09:49.927Z,6.97
2023-04-01T18:12:33.550Z,5.32
2023-04-01T18:15:12.463Z,4.70
2023-04-01T18:17:51.226Z,4.80
2023-04-01T18:20:39.134Z,4.95
2023-04-01T18:23:17.961Z,4.90
2023-04-01T18:25:49.586Z,5.25
2023-04-01T18:28:19.821Z,4.38
2023-04-01T18:30:58.661Z,5.03
2023-04-01T18:33:47.400Z,4.47
2023-04-01T18:36:25.705Z,4.95
2023-04-01T18:38:55.420Z,5.20
2023-04-01T18:41:27.990Z,5.75
2023-04-01T18:44:32.015Z,8.57
2023-04-01T18:47:09.220Z,5.30
2023-04-01T18:50:26.082Z,5.00
2023-04-01T18:53:09.574Z,6.07
2023-04-01T18:55:43.963Z,7.38
2023-04-01T18:58:36.757Z,7.30
2023-04-01T19:01:03.335Z,8.95
2023-04-01T19:03:42.153Z,7.68
2023-04-01T19:06:22.494Z,7.28
2023-04-01T19:08:49.300Z,8.32
2023-04-01T19:11:50.494Z,9.60
2023-04-01T19:14:27.968Z,7.00
2023-04-01T19:17:17.327Z,7.88
2023-04-01T19:19:49.580Z,8.38
2023-04-01T19:22:37.731Z,7.80
2023-04-01T19:25:24.458Z,8.60
2023-04-01T19:28:08.496Z,7.82
2023-04-01T19:30:35.538Z,7.20
2023-04-01T19:33:23.875Z,8.35
2023-04-01T19:36:09.306Z,8.10
2023-04-01T19:38:40.265Z,8.10
2023-04-01T19:41:25.786Z,8.90
2023-04-01T19:44:17.742Z,8.18
2023-04-01T19:46:50.818Z,9.45
2023-04-01T19:49:35.606Z,9.63
2023-04-01T19:52:15.536Z,9.83
2023-04-01T19:54:52.080Z,9.00
2023-04-01T19:57:41.282Z,8.82
2023-04-01T20:00:17.565Z,12.02
2023-04-01T20:03:23.604Z,7.90
2023-04-01T20:06:14.533Z,7.43
2023-04-01T20:08:51.878Z,9.43
2023-04-01T20:11:39.319Z,8.43
2023-04-01T20:14:16.208Z,11.10
2023-04-01T20:17:03.838Z,8.40
2023-04-01T20:20:05.196Z,8.07
2023-04-01T20:22:46.890Z,7.78
2023-04-01T20:25:14.126Z,8.10
2023-04-01T20:27:48.363Z,8.95
2023-04-01T20:30:43.549Z,8.48
2023-04-01T20:33:27.807Z,9.33
2023-04-01T20:36:06.869Z,7.68
2023-04-01T20:38:45.415Z,9.48
2023-04-01T20:41:24.027Z,9.05
2023-04-01T20:43:50.448Z,9.63
2023-04-01T20:46:24.165Z,10.77
2023-04-01T20:49:44.566Z,10.25
2023-04-01T20:52:13.678Z,10.30
2023-04-01T20:54:51.940Z,10.75
2023-04-01T20:57:44.348Z,9.65
2023-04-01T21:00:34.414Z,10.97
2023-04-01T21:03:01.120Z,10.77
2023-04-01T21:05:36.752Z,10.43
2023-04-01T21:08:12.417Z,9.43
2023-04-01T21:10:46.921Z,11.30
2023-04-01T21:13:37.999Z,9.17
2023-04-01T21:16:32.299Z,11.38
2023-04-01T21:19:09.750Z,10.38
2023-04-01T21:22:09.122Z,9.57
2023-04-01T21:25:09.013Z,9.27
2023-04-01T21:27:50.693Z,9.07
2023-04-01T21:30:44.993Z,9.60
2023-04-01T21:33:36.208Z,8.85
2023-04-01T21:36:28.625Z,8.23
2023-04-01T21:39:20.146Z,9.57
2023-04-01T21:42:16.054Z,9.00
2023-04-01T21:44:59.274Z,8.20
2023-04-01T21:48:03.285Z,8.85
2023-04-01T21:50:53.973Z,8.75
2023-04-01T21:53:43.900Z,9.25
2023-04-01T21:56:32.135Z,9.47
2023-04-01T21:59:07.675Z,10.75
2023-04-01T22:02:08.265Z,10.38
2023-04-01T22:04:41.567Z,13.38
2023-04-01T22:07:21.006Z,12.43
2023-04-01T22:10:05.760Z,15.60
2023-04-01T22:12:51.220Z,13.82
2023-04-01T22:15:33.196Z,17.27
2023-04-01T22:18:10.421Z,12.80
2023-04-01T22:20:58.328Z,11.45
2023-04-01T22:23:32.105Z,14.97
2023-04-01T22:26:13.645Z,14.63
2023-04-01T22:28:57.033Z,16.17
2023-04-01T22:31:49.955Z,14.43
2023-04-01T22:34:22.107Z,15.57
2023-04-01T22:37:00.692Z,16.33
2023-04-01T22:39:33.242Z,16.15
2023-04-01T22:42:02.270Z,13.43
2023-04-01T22:44:48.514Z,13.15
2023-04-01T22:47:33.575Z,10.88
2023-04-01T22:50:18.794Z,12.27
2023-04-01T22:52:49.199Z,9.65
2023-04-01T22:55:27.590Z,10.98
2023-04-01T22:58:11.209Z,9.13
2023-04-01T23:00:45.825Z,8.38
2023-04-01T23:03:32.072Z,9.00
2023-04-01T23:06:01.184Z,8.52
2023-04-01T23:09:00.820Z,11.75
2023-04-01T23:11:33.269Z,14.90
2023-04-01T23:14:20.194Z,15.55
2023-04-01T23:17:09.565Z,16.33
2023-04-01T23:20:11.735Z,16.92
2023-04-01T23:23:12.184Z,16.35
2023-04-01T23:25:38.677Z,15.95
2023-04-01T23:28:48.319Z,16.27
2023-04-01T23:31:39.237Z,16.40
2023-04-01T23:34:15.262Z,14.48
2023-04-01T23:36:51.704Z,14.57
2023-04-01T23:39:29.236Z,16.02
2023-04-01T23:42:05.695Z,16.17
2023-04-01T23:44:33.703Z,15.97
2023-04-01T23:47:02.091Z,15.48
2023-04-01T23:49:34.411Z,16.77
2023-04-01T23:52:24.690Z,16.65
2023-04-01T23:55:04.593Z,13.30
2023-04-01T23:57:34.199Z,15.33
